Camp Douglas, WI (54618)

2:57 PM CDT on July 06, 2015 (GMT -0500)
Volk | | Change Station
CLOSE
Current Station
Airport
Location: Volk,
Elevation: 909 ft
Nearby Weather Stations

Elev 909 ft 43.94 °N, 90.25 °W | Updated 12 minutes ago

Overcast
Overcast
79 °F
Feels Like 79 °F
N
10
Wind Variable Wind from SW

Today
High -- | Low -- °F
--% Chance of Precip.
Yesterday
High -- | Low -- °F
Precip. -- in
5:25 AM 8:46 PM
Waning Gibbous, 72% visible
Pressure 29.82 in
Visibility 10.0 miles
Clouds Mostly Cloudy 2500 ft
Overcast 10000 ft
Dew Point 77 °F
Humidity 94%
Rainfall 0.13 in
Snow Depth Not available.
UV 3 out of 12
Pollen .60 out of 12
Air Quality Not available.
Flu Activity Not available.
SPECI KVOK 061945Z 22009KT 190V250 10SM BKN025 OVC100 26/25 A2982 RMK AO2A

More Conditions Fewer Conditions

Pressure 29.82 in
Visibility 10.0 miles
Clouds Mostly Cloudy 2500 ft
Overcast 10000 ft
Dew Point 77 °F
Humidity 94%
Rainfall 0.13 in
Snow Depth Not available.
UV 3 out of 12
Pollen .60 out of 12
Air Quality Not available.
Flu Activity Not available.
SPECI KVOK 061945Z 22009KT 190V250 10SM BKN025 OVC100 26/25 A2982 RMK AO2A

More Conditions Fewer Conditions

10-Day Weather Forecast

×

Almanac

Astronomy

Jul. 06, 2015 Rise Set
Actual Time
Civil Twilight
Nautical Twilight
Astronomical Twilight
Moon
Length of Visible Light
Length of Day
Tomorrow will be .
, % of the Moon is Illuminated

Today's Extremes

State Highs State Lows

Community

WunderPhotos

Upload Photos

1,835,625 photos uploaded!

WunderBlogs® & News

Nearby

Air Quality

  Air Quality AQ Index Pollutant
Not available.

Snow Depth

Station Depth Elevation

Earthquake Activity

City Distance Mag. Time & Date
Minimum magnitude displayed is 2.5.

Coastal Water Temperatures

Place Temperature

Stations

Nearby Weather Stations

Station Location Temp. Windchill Dew Point Humidity Wind Precip. Elev Updated Type